createdAt,value
2022-07-29T08:15:47.075Z,2.38
2022-07-29T08:30:51.700Z,2.22
2022-07-29T08:45:56.428Z,2.90
2022-07-29T09:01:05.516Z,2.53
2022-07-29T09:16:12.471Z,3.38
2022-07-29T09:31:17.127Z,2.90
2022-07-29T09:46:21.891Z,3.77
2022-07-29T10:01:31.417Z,7.57
2022-07-29T10:16:36.368Z,22.83
2022-07-29T10:31:52.042Z,15.13
2022-07-29T10:46:57.182Z,7.03
2022-07-29T11:17:37.597Z,3.40
2022-07-29T11:32:53.187Z,3.60
2022-07-29T11:48:27.653Z,3.60
2022-07-29T12:03:35.026Z,3.43
2022-07-29T12:18:40.939Z,3.43
2022-07-29T12:33:55.462Z,3.53
2022-07-29T12:49:04.063Z,3.20
2022-07-29T13:04:08.991Z,2.73
2022-07-29T13:19:14.140Z,2.70
2022-07-29T13:34:20.625Z,2.90
2022-07-29T13:49:25.235Z,2.60
2022-07-29T14:04:29.954Z,2.50
2022-07-29T14:19:36.508Z,2.77
2022-07-29T14:34:41.344Z,2.90
2022-07-29T14:49:45.905Z,2.47
2022-07-29T15:04:50.570Z,2.77
2022-07-29T15:19:55.197Z,2.50
2022-07-29T15:34:59.764Z,2.27
2022-07-29T15:50:04.704Z,2.47
2022-07-29T16:05:09.736Z,1.60
2022-07-29T16:20:14.575Z,1.40
2022-07-29T16:35:19.141Z,1.27
2022-07-29T16:50:23.808Z,1.00
2022-07-29T17:05:28.934Z,1.10
2022-07-29T17:20:36.539Z,1.70
2022-07-29T17:35:58.756Z,1.40
2022-07-29T17:51:03.796Z,1.20
2022-07-29T18:06:10.356Z,1.90
2022-07-29T18:21:15.015Z,2.03
2022-07-29T18:36:19.579Z,2.10
2022-07-29T18:51:24.167Z,2.17
2022-07-29T19:06:28.952Z,1.57
2022-07-29T19:21:33.991Z,1.67
2022-07-29T19:36:38.755Z,1.43
